ZUFUS FAOR-FALA
Flight info
| Callsign | ZUFUS |
|---|---|
| Flight time | N/A |
| Altitude | 6600 |
| Route | FAGC DCT FALA |
| Aircraft | DA40/L-SBDGRY/S |
Departure
| Time | 2026-05-04 08:40 |
|---|---|
| Airport | O.R. Tambo International Airport (FAOR) |
Arrival
| Time | N/A |
|---|---|
| Airport | Lanseria International Airport (FALA) |
| Time | Latitude | Longitude | Altitude | Speed | Heading |
|---|---|---|---|---|---|
| 2026-05-04 08:19 | -26.14352 | 28.26146 | 5560 ft | 0 kts | 215° |
| 2026-05-04 08:27 | -26.14459 | 28.25917 | 5560 ft | 19 kts | 211° |
| 2026-05-04 08:28 | -26.14574 | 28.25827 | 5560 ft | 21 kts | 214° |
| 2026-05-04 08:28 | -26.14692 | 28.25721 | 5560 ft | 20 kts | 240° |
| 2026-05-04 08:28 | -26.14759 | 28.25612 | 5560 ft | 15 kts | 238° |
| 2026-05-04 08:28 | -26.14756 | 28.25516 | 5560 ft | 14 kts | 316° |
| 2026-05-04 08:29 | -26.14721 | 28.25479 | 5560 ft | 0 kts | 321° |
| 2026-05-04 08:31 | -26.14563 | 28.25310 | 5562 ft | 14 kts | 317° |
| 2026-05-04 08:33 | -26.15321 | 28.24966 | 5556 ft | 15 kts | 199° |
| 2026-05-04 08:33 | -26.15420 | 28.24935 | 5556 ft | 17 kts | 196° |
| 2026-05-04 08:35 | -26.16430 | 28.24688 | 5557 ft | 0 kts | 108° |
| 2026-05-04 08:37 | -26.16432 | 28.24698 | 5558 ft | 6 kts | 105° |
| 2026-05-04 08:37 | -26.16441 | 28.24788 | 5560 ft | 15 kts | 62° |
| 2026-05-04 08:37 | -26.16375 | 28.24845 | 5561 ft | 6 kts | 17° |
| 2026-05-04 08:38 | -26.16374 | 28.24846 | 5561 ft | 0 kts | 15° |
| 2026-05-04 08:38 | -26.16329 | 28.24858 | 5562 ft | 24 kts | 14° |
| 2026-05-04 08:38 | -26.16028 | 28.24953 | 5563 ft | 65 kts | 13° |
| 2026-05-04 08:40 | -26.12007 | 28.25789 | 6499 ft | 98 kts | 322° |
| 2026-05-04 08:40 | -26.11416 | 28.25300 | 6484 ft | 111 kts | 322° |
| 2026-05-04 08:40 | -26.10788 | 28.24762 | 6504 ft | 118 kts | 321° |
| 2026-05-04 08:41 | -26.10125 | 28.24171 | 6490 ft | 126 kts | 320° |
| 2026-05-04 08:41 | -26.09433 | 28.23568 | 6488 ft | 126 kts | 320° |
| 2026-05-04 08:41 | -26.08743 | 28.22961 | 6500 ft | 126 kts | 321° |
| 2026-05-04 08:41 | -26.08052 | 28.22359 | 6478 ft | 128 kts | 321° |
| 2026-05-04 08:42 | -26.07365 | 28.21750 | 6490 ft | 127 kts | 319° |
| 2026-05-04 08:42 | -26.06690 | 28.21139 | 6488 ft | 125 kts | 320° |
| 2026-05-04 08:42 | -26.06008 | 28.20523 | 6488 ft | 126 kts | 320° |
| 2026-05-04 08:42 | -26.05357 | 28.19872 | 6484 ft | 125 kts | 316° |
| 2026-05-04 08:43 | -26.04727 | 28.19209 | 6488 ft | 124 kts | 317° |
| 2026-05-04 08:43 | -26.04107 | 28.18565 | 6488 ft | 121 kts | 317° |
| 2026-05-04 08:43 | -26.03491 | 28.17922 | 6483 ft | 121 kts | 316° |
| 2026-05-04 08:43 | -26.02882 | 28.17284 | 6489 ft | 122 kts | 317° |
| 2026-05-04 08:44 | -26.02258 | 28.16630 | 6494 ft | 124 kts | 316° |
| 2026-05-04 08:44 | -26.01618 | 28.15963 | 6452 ft | 130 kts | 317° |
| 2026-05-04 08:46 | -25.98718 | 28.14057 | 5308 ft | 0 kts | 330° |
| 2026-05-04 08:47 | -25.98674 | 28.14031 | 5306 ft | 27 kts | 333° |
| 2026-05-04 08:47 | -25.98369 | 28.13861 | 5303 ft | 70 kts | 330° |
| 2026-05-04 08:47 | -25.97899 | 28.13583 | 5424 ft | 80 kts | 329° |
| 2026-05-04 08:47 | -25.97406 | 28.13274 | 5598 ft | 85 kts | 328° |
| 2026-05-04 08:48 | -25.96825 | 28.12897 | 5607 ft | 105 kts | 330° |
| 2026-05-04 08:48 | -25.96555 | 28.12154 | 5633 ft | 127 kts | 253° |
| 2026-05-04 08:48 | -25.97052 | 28.11302 | 5621 ft | 133 kts | 240° |
| 2026-05-04 08:48 | -25.97597 | 28.10523 | 5708 ft | 128 kts | 215° |
| 2026-05-04 08:49 | -25.98446 | 28.10829 | 5634 ft | 138 kts | 146° |
| 2026-05-04 08:50 | -26.01560 | 28.14849 | 5600 ft | 121 kts | 52° |
| 2026-05-04 08:50 | -26.01049 | 28.15550 | 5680 ft | 110 kts | 18° |
| 2026-05-04 08:51 | -26.00481 | 28.15215 | 5666 ft | 104 kts | 313° |
| 2026-05-04 08:51 | -25.99870 | 28.14720 | 5486 ft | 112 kts | 327° |
| 2026-05-04 08:51 | -25.99195 | 28.14329 | 5374 ft | 94 kts | 331° |
| 2026-05-04 08:51 | -25.98728 | 28.14065 | 5309 ft | 58 kts | 330° |
| 2026-05-04 08:52 | -25.98441 | 28.13899 | 5307 ft | 38 kts | 333° |
| 2026-05-04 08:52 | -25.98116 | 28.13717 | 5298 ft | 71 kts | 329° |
| 2026-05-04 08:52 | -25.97799 | 28.13637 | 5278 ft | 19 kts | 319° |